Nitra, Slovensko

09:00 AM CET dna 05 Marec, 2015 (GMT +0100)
INITRANI2 | Change Station
CLOSE
Current Station
Personal Weather Stations
Location: Nitrianske Hrnciarovce, Nitriansky kraj
Nad. výška:: 837 ft
Najbližšie meteo stanice

Elev 837 ft 48.34 °N, 18.13 °E | Updated 28 seconds ago

Clear
Jasno
44.1 °F
Feels Like 44 °F
N
2.0
Vietor meniaci sa Vietor from SSV
Gusts 3.0 mph

Dnes
High -- | Low -- °F
--% Chance of Precip.
Yesterday
High -- | Low -- °F
Precip. -- in
6:21 AM 5:37 PM
Spln, 100% visible
Tlak 30.39 in
Viditeľnosť -9999.0 mile
Oblačnost
Pocitová teplota 44 °F
Rosný bod 31 °F
Vlhkosť 59%
Rainfall in
Výška snehu Not available.
UV Not available.
Pollen Not available.
Air Quality Not available.
Flu Activity Not available.
METAR LZIB 050730Z 33009KT CAVOK 05/M03 Q1029 NOSIG

More Conditions Fewer Conditions

Tlak 30.39 in
Viditeľnosť -9999.0 mile
Oblačnost
Pocitová teplota 44 °F
Rosný bod 31 °F
Vlhkosť 59%
Rainfall in
Výška snehu Not available.
UV Not available.
Pollen Not available.
Air Quality Not available.
Flu Activity Not available.
METAR LZIB 050730Z 33009KT CAVOK 05/M03 Q1029 NOSIG

More Conditions Fewer Conditions

10-Day Weather Forecast

Almanac

Astronómia

Mar. 05, 2015 Východ Západ
Aktuálny čas
Civil Twilight
Nautical Twilight
Astronomical Twilight
Mesiac
Length Of Visible Light
Dĺžka dňa
Tomorrow will be .
, % of the Moon is Illuminated

Today's Extremes

Country Highs Country Lows

Community

WunderPhotos

Upload Photos

1,802,704 photos uploaded!

WunderBlogs® & News

Nearby

Air Quality

  Air Quality AQ Index Pollutant
Not available.

Výska snehu

Station Depth Nad. výška:

Aktivita zemetrasenia

Mesto Distance Mag. Time & Date
Minimum magnitude displayed is 2.5.

Coastal Water Temperatures

Miesto Teplota

Najbližšie meteo stanice